sensor_id;sensor_type;location;lat;lon;timestamp;pressure;altitude;pressure_sealevel;temperature
75431;BMP280;64127;51.488;5.462;2023-05-14T00:00:31;101686.13;;;20.41
75431;BMP280;64127;51.488;5.462;2023-05-14T00:03:03;101681.66;;;20.37
75431;BMP280;64127;51.488;5.462;2023-05-14T00:05:35;101687.84;;;20.38
75431;BMP280;64127;51.488;5.462;2023-05-14T00:08:07;101676.28;;;20.34
75431;BMP280;64127;51.488;5.462;2023-05-14T00:10:39;101680.72;;;20.34
75431;BMP280;64127;51.488;5.462;2023-05-14T00:13:11;101678.00;;;20.32
75431;BMP280;64127;51.488;5.462;2023-05-14T00:15:43;101678.00;;;20.32
75431;BMP280;64127;51.488;5.462;2023-05-14T00:18:16;101673.59;;;20.33
75431;BMP280;64127;51.488;5.462;2023-05-14T00:20:48;101669.97;;;20.29
75431;BMP280;64127;51.488;5.462;2023-05-14T00:23:23;101663.63;;;20.22
75431;BMP280;64127;51.488;5.462;2023-05-14T00:25:55;101662.78;;;20.25
75431;BMP280;64127;51.488;5.462;2023-05-14T00:28:27;101664.53;;;20.23
75431;BMP280;64127;51.488;5.462;2023-05-14T00:30:59;101663.59;;;20.21
75431;BMP280;64127;51.488;5.462;2023-05-14T00:33:31;101655.56;;;20.18
75431;BMP280;64127;51.488;5.462;2023-05-14T00:36:03;101655.56;;;20.16
75431;BMP280;64127;51.488;5.462;2023-05-14T00:38:35;101659.94;;;20.13
75431;BMP280;64127;51.488;5.462;2023-05-14T00:41:08;101658.13;;;20.12
75431;BMP280;64127;51.488;5.462;2023-05-14T00:43:39;101663.41;;;20.09
75431;BMP280;64127;51.488;5.462;2023-05-14T00:46:12;101656.28;;;20.08
75431;BMP280;64127;51.488;5.462;2023-05-14T00:48:45;101647.34;;;20.04
75431;BMP280;64127;51.488;5.462;2023-05-14T00:51:17;101651.72;;;19.99
75431;BMP280;64127;51.488;5.462;2023-05-14T00:53:50;101652.56;;;19.97
75431;BMP280;64127;51.488;5.462;2023-05-14T00:56:23;101655.16;;;19.92
75431;BMP280;64127;51.488;5.462;2023-05-14T00:58:55;101647.94;;;19.85
75431;BMP280;64127;51.488;5.462;2023-05-14T01:01:27;101653.19;;;19.81
75431;BMP280;64127;51.488;5.462;2023-05-14T01:03:59;101645.16;;;19.78
75431;BMP280;64127;51.488;5.462;2023-05-14T01:06:50;101652.09;;;19.69
75431;BMP280;64127;51.488;5.462;2023-05-14T01:15:01;101644.75;;;19.55
75431;BMP280;64127;51.488;5.462;2023-05-14T01:17:50;101649.13;;;19.51
75431;BMP280;64127;51.488;5.462;2023-05-14T01:20:25;101648.19;;;19.49
75431;BMP280;64127;51.488;5.462;2023-05-14T01:22:58;101648.09;;;19.43
75431;BMP280;64127;51.488;5.462;2023-05-14T01:25:30;101650.63;;;19.39
75431;BMP280;64127;51.488;5.462;2023-05-14T01:28:16;101652.31;;;19.34
75431;BMP280;64127;51.488;5.462;2023-05-14T01:30:57;101651.41;;;19.33
75431;BMP280;64127;51.488;5.462;2023-05-14T01:33:33;101649.63;;;19.32
75431;BMP280;64127;51.488;5.462;2023-05-14T01:36:07;101646.00;;;19.29
75431;BMP280;64127;51.488;5.462;2023-05-14T01:38:39;101645.03;;;19.23
75431;BMP280;64127;51.488;5.462;2023-05-14T01:41:18;101629.94;;;19.21
75431;BMP280;64127;51.488;5.462;2023-05-14T01:43:50;101635.16;;;19.18
75431;BMP280;64127;51.488;5.462;2023-05-14T01:46:22;101637.81;;;19.16
75431;BMP280;64127;51.488;5.462;2023-05-14T01:48:55;101638.66;;;19.14
75431;BMP280;64127;51.488;5.462;2023-05-14T01:51:27;101634.13;;;19.10
75431;BMP280;64127;51.488;5.462;2023-05-14T01:53:59;101629.50;;;19.00
75431;BMP280;64127;51.488;5.462;2023-05-14T01:56:31;101640.13;;;19.00
75431;BMP280;64127;51.488;5.462;2023-05-14T01:59:03;101640.09;;;18.98
75431;BMP280;64127;51.488;5.462;2023-05-14T02:01:35;101633.81;;;18.93
75431;BMP280;64127;51.488;5.462;2023-05-14T02:04:07;101631.03;;;18.89
75431;BMP280;64127;51.488;5.462;2023-05-14T02:06:39;101638.06;;;18.85
75431;BMP280;64127;51.488;5.462;2023-05-14T02:09:12;101631.81;;;18.83
75431;BMP280;64127;51.488;5.462;2023-05-14T02:11:44;101632.63;;;18.81
75431;BMP280;64127;51.488;5.462;2023-05-14T02:14:16;101630.72;;;18.73
75431;BMP280;64127;51.488;5.462;2023-05-14T02:16:48;101635.97;;;18.70
75431;BMP280;64127;51.488;5.462;2023-05-14T02:19:21;101626.97;;;18.62
75431;BMP280;64127;51.488;5.462;2023-05-14T02:21:53;101631.38;;;18.63
75431;BMP280;64127;51.488;5.462;2023-05-14T02:24:26;101625.09;;;18.58
75431;BMP280;64127;51.488;5.462;2023-05-14T02:26:58;101626.81;;;18.56
75431;BMP280;64127;51.488;5.462;2023-05-14T02:29:31;101627.63;;;18.54
75431;BMP280;64127;51.488;5.462;2023-05-14T02:32:04;101616.97;;;18.51
75431;BMP280;64127;51.488;5.462;2023-05-14T02:34:36;101630.16;;;18.49
75431;BMP280;64127;51.488;5.462;2023-05-14T02:37:09;101632.75;;;18.46
75431;BMP280;64127;51.488;5.462;2023-05-14T02:39:41;101636.31;;;18.47
75431;BMP280;64127;51.488;5.462;2023-05-14T02:42:13;101629.13;;;18.41
75431;BMP280;64127;51.488;5.462;2023-05-14T02:44:45;101627.25;;;18.37
75431;BMP280;64127;51.488;5.462;2023-05-14T02:47:17;101625.38;;;18.33
75431;BMP280;64127;51.488;5.462;2023-05-14T02:49:49;101623.59;;;18.32
75431;BMP280;64127;51.488;5.462;2023-05-14T02:52:22;101624.47;;;18.31
75431;BMP280;64127;51.488;5.462;2023-05-14T02:54:53;101627.13;;;18.31
75431;BMP280;64127;51.488;5.462;2023-05-14T02:57:25;101595.72;;;18.13
75431;BMP280;64127;51.488;5.462;2023-05-14T02:59:57;101619.09;;;18.28
75431;BMP280;64127;51.488;5.462;2023-05-14T03:02:30;101623.50;;;18.29
75431;BMP280;64127;51.488;5.462;2023-05-14T03:05:03;101623.44;;;18.26
75431;BMP280;64127;51.488;5.462;2023-05-14T03:07:35;101623.44;;;18.24
75431;BMP280;64127;51.488;5.462;2023-05-14T03:10:07;101629.63;;;18.25
75431;BMP280;64127;51.488;5.462;2023-05-14T03:12:39;101624.22;;;18.22
75431;BMP280;64127;51.488;5.462;2023-05-14T03:15:11;101621.56;;;18.20
75431;BMP280;64127;51.488;5.462;2023-05-14T03:17:43;101613.53;;;18.19
75431;BMP280;64127;51.488;5.462;2023-05-14T03:20:15;101621.44;;;18.16
75431;BMP280;64127;51.488;5.462;2023-05-14T03:22:48;101614.38;;;18.16
75431;BMP280;64127;51.488;5.462;2023-05-14T03:25:20;101610.75;;;18.11
75431;BMP280;64127;51.488;5.462;2023-05-14T03:27:52;101617.81;;;18.11
75431;BMP280;64127;51.488;5.462;2023-05-14T03:30:24;101606.16;;;18.06
75431;BMP280;64127;51.488;5.462;2023-05-14T03:32:58;101599.88;;;18.01
75431;BMP280;64127;51.488;5.462;2023-05-14T03:35:30;101597.22;;;18.01
75431;BMP280;64127;51.488;5.462;2023-05-14T03:38:02;101592.75;;;18.00
75431;BMP280;64127;51.488;5.462;2023-05-14T03:40:34;101603.00;;;18.22
75431;BMP280;64127;51.488;5.462;2023-05-14T03:43:06;101599.75;;;17.96
75431;BMP280;64127;51.488;5.462;2023-05-14T03:45:38;101602.22;;;17.89
75431;BMP280;64127;51.488;5.462;2023-05-14T03:48:11;101599.47;;;17.84
75431;BMP280;64127;51.488;5.462;2023-05-14T03:50:43;101617.16;;;17.84
75431;BMP280;64127;51.488;5.462;2023-05-14T03:53:15;101617.09;;;17.82
75431;BMP280;64127;51.488;5.462;2023-05-14T03:55:47;101603.72;;;17.78
75431;BMP280;64127;51.488;5.462;2023-05-14T03:58:19;101615.16;;;17.75
75431;BMP280;64127;51.488;5.462;2023-05-14T04:00:51;101610.63;;;17.71
75431;BMP280;64127;51.488;5.462;2023-05-14T04:03:23;101613.13;;;17.63
75431;BMP280;64127;51.488;5.462;2023-05-14T04:05:55;101606.84;;;17.61
75431;BMP280;64127;51.488;5.462;2023-05-14T04:08:27;101607.69;;;17.60
75431;BMP280;64127;51.488;5.462;2023-05-14T04:10:59;101606.78;;;17.58
75431;BMP280;64127;51.488;5.462;2023-05-14T04:13:31;101611.97;;;17.55
75431;BMP280;64127;51.488;5.462;2023-05-14T04:16:04;101599.56;;;17.54
75431;BMP280;64127;51.488;5.462;2023-05-14T04:18:36;101610.19;;;17.54
75431;BMP280;64127;51.488;5.462;2023-05-14T04:21:08;101599.56;;;17.54
75431;BMP280;64127;51.488;5.462;2023-05-14T04:23:40;101596.91;;;17.54
75431;BMP280;64127;51.488;5.462;2023-05-14T04:26:12;101588.03;;;17.52
75431;BMP280;64127;51.488;5.462;2023-05-14T04:28:44;101601.31;;;17.54
75431;BMP280;64127;51.488;5.462;2023-05-14T04:31:16;101595.91;;;17.49
75431;BMP280;64127;51.488;5.462;2023-05-14T04:33:48;101601.16;;;17.46
75431;BMP280;64127;51.488;5.462;2023-05-14T04:36:20;101605.56;;;17.46
75431;BMP280;64127;51.488;5.462;2023-05-14T04:38:52;101606.53;;;17.49
75431;BMP280;64127;51.488;5.462;2023-05-14T04:41:24;101610.03;;;17.48
75431;BMP280;64127;51.488;5.462;2023-05-14T04:43:57;101604.72;;;17.48
75431;BMP280;64127;51.488;5.462;2023-05-14T04:46:29;101605.63;;;17.49
75431;BMP280;64127;51.488;5.462;2023-05-14T04:49:01;101603.81;;;17.48
75431;BMP280;64127;51.488;5.462;2023-05-14T04:51:33;101601.22;;;17.49
75431;BMP280;64127;51.488;5.462;2023-05-14T04:54:05;101597.63;;;17.47
75431;BMP280;64127;51.488;5.462;2023-05-14T04:56:37;101607.44;;;17.50
75431;BMP280;64127;51.488;5.462;2023-05-14T04:59:09;101604.56;;;17.42
75431;BMP280;64127;51.488;5.462;2023-05-14T05:01:41;101608.16;;;17.44
75431;BMP280;64127;51.488;5.462;2023-05-14T05:04:13;101617.81;;;17.42
75431;BMP280;64127;51.488;5.462;2023-05-14T05:06:45;101614.41;;;17.46
75431;BMP280;64127;51.488;5.462;2023-05-14T05:09:17;101620.63;;;17.48
75431;BMP280;64127;51.488;5.462;2023-05-14T05:11:49;101624.06;;;17.44
75431;BMP280;64127;51.488;5.462;2023-05-14T05:14:21;101628.50;;;17.45
75431;BMP280;64127;51.488;5.462;2023-05-14T05:16:53;101625.84;;;17.45
75431;BMP280;64127;51.488;5.462;2023-05-14T05:19:25;101627.56;;;17.43
75431;BMP280;64127;51.488;5.462;2023-05-14T05:22:14;101622.19;;;17.40
75431;BMP280;64127;51.488;5.462;2023-05-14T05:24:46;101627.56;;;17.43
75431;BMP280;64127;51.488;5.462;2023-05-14T05:27:20;101625.88;;;17.47
75431;BMP280;64127;51.488;5.462;2023-05-14T05:29:52;101631.25;;;17.48
75431;BMP280;64127;51.488;5.462;2023-05-14T05:32:24;101636.63;;;17.51
75431;BMP280;64127;51.488;5.462;2023-05-14T05:34:56;101630.47;;;17.52
75431;BMP280;64127;51.488;5.462;2023-05-14T05:37:30;101626.97;;;17.55
75431;BMP280;64127;51.488;5.462;2023-05-14T05:40:03;101627.16;;;17.59
75431;BMP280;64127;51.488;5.462;2023-05-14T05:42:36;101628.22;;;17.67
75431;BMP280;64127;51.488;5.462;2023-05-14T05:45:08;101625.69;;;17.72
75431;BMP280;64127;51.488;5.462;2023-05-14T05:47:41;101634.88;;;17.86
75431;BMP280;64127;51.488;5.462;2023-05-14T05:50:13;101621.75;;;17.91
75431;BMP280;64127;51.488;5.462;2023-05-14T05:52:45;101620.22;;;18.02
75431;BMP280;64127;51.488;5.462;2023-05-14T05:55:17;101609.66;;;18.03
75431;BMP280;64127;51.488;5.462;2023-05-14T05:57:50;101598.97;;;18.00
75431;BMP280;64127;51.488;5.462;2023-05-14T06:00:22;101620.53;;;18.14
75431;BMP280;64127;51.488;5.462;2023-05-14T06:02:55;101624.22;;;18.22
75431;BMP280;64127;51.488;5.462;2023-05-14T06:05:27;101632.38;;;18.30
75431;BMP280;64127;51.488;5.462;2023-05-14T06:08:00;101624.41;;;18.28
75431;BMP280;64127;51.488;5.462;2023-05-14T06:10:32;101627.69;;;18.18
75431;BMP280;64127;51.488;5.462;2023-05-14T06:13:05;101630.44;;;18.22
75431;BMP280;64127;51.488;5.462;2023-05-14T06:15:37;101643.97;;;18.33
75431;BMP280;64127;51.488;5.462;2023-05-14T06:18:09;101644.25;;;18.45
75431;BMP280;64127;51.488;5.462;2023-05-14T06:20:41;101640.91;;;18.52
75431;BMP280;64127;51.488;5.462;2023-05-14T06:23:13;101636.47;;;18.53
75431;BMP280;64127;51.488;5.462;2023-05-14T06:25:45;101641.16;;;18.64
75431;BMP280;64127;51.488;5.462;2023-05-14T06:28:20;101648.53;;;18.78
75431;BMP280;64127;51.488;5.462;2023-05-14T06:30:52;101645.41;;;18.97
75431;BMP280;64127;51.488;5.462;2023-05-14T06:33:24;101642.13;;;19.11
75431;BMP280;64127;51.488;5.462;2023-05-14T06:36:04;101637.16;;;19.30
75431;BMP280;64127;51.488;5.462;2023-05-14T06:38:37;101634.88;;;19.49
75431;BMP280;64127;51.488;5.462;2023-05-14T06:41:09;101635.28;;;19.70
75431;BMP280;64127;51.488;5.462;2023-05-14T06:43:41;101639.91;;;19.84
75431;BMP280;64127;51.488;5.462;2023-05-14T06:46:13;101638.19;;;19.86
75431;BMP280;64127;51.488;5.462;2023-05-14T06:48:44;101640.94;;;19.92
75431;BMP280;64127;51.488;5.462;2023-05-14T06:51:17;101631.34;;;20.01
75431;BMP280;64127;51.488;5.462;2023-05-14T06:53:48;101632.38;;;20.11
75431;BMP280;64127;51.488;5.462;2023-05-14T06:56:21;101629.75;;;20.14
75431;BMP280;64127;51.488;5.462;2023-05-14T06:58:53;101632.38;;;20.09
75431;BMP280;64127;51.488;5.462;2023-05-14T07:01:25;101620.56;;;19.94
75431;BMP280;64127;51.488;5.462;2023-05-14T07:03:57;101634.78;;;19.93
75431;BMP280;64127;51.488;5.462;2023-05-14T07:06:29;101629.66;;;20.08
75431;BMP280;64127;51.488;5.462;2023-05-14T07:09:01;101619.06;;;20.11
75431;BMP280;64127;51.488;5.462;2023-05-14T07:11:33;101625.16;;;20.04
75431;BMP280;64127;51.488;5.462;2023-05-14T07:14:06;101631.41;;;20.07
75431;BMP280;64127;51.488;5.462;2023-05-14T07:16:38;101601.19;;;20.04
75431;BMP280;64127;51.488;5.462;2023-05-14T07:19:11;101619.91;;;20.08
75431;BMP280;64127;51.488;5.462;2023-05-14T07:21:43;101626.31;;;20.21
75431;BMP280;64127;51.488;5.462;2023-05-14T07:24:15;101629.31;;;20.42
75431;BMP280;64127;51.488;5.462;2023-05-14T07:26:47;101630.44;;;20.59
75431;BMP280;64127;51.488;5.462;2023-05-14T07:29:19;101628.03;;;20.78
75431;BMP280;64127;51.488;5.462;2023-05-14T07:31:51;101622.78;;;20.85
75431;BMP280;64127;51.488;5.462;2023-05-14T07:34:23;101625.25;;;20.68
75431;BMP280;64127;51.488;5.462;2023-05-14T07:36:55;101623.31;;;20.58
75431;BMP280;64127;51.488;5.462;2023-05-14T07:39:27;101626.81;;;20.51
75431;BMP280;64127;51.488;5.462;2023-05-14T07:42:00;101628.63;;;20.57
75431;BMP280;64127;51.488;5.462;2023-05-14T07:44:32;101624.31;;;20.65
75431;BMP280;64127;51.488;5.462;2023-05-14T07:47:04;101627.88;;;20.67
75431;BMP280;64127;51.488;5.462;2023-05-14T07:49:38;101630.63;;;20.71
75431;BMP280;64127;51.488;5.462;2023-05-14T07:52:10;101627.00;;;20.68
75431;BMP280;64127;51.488;5.462;2023-05-14T07:54:42;101623.44;;;20.67
75431;BMP280;64127;51.488;5.462;2023-05-14T07:57:14;101629.72;;;20.72
75431;BMP280;64127;51.488;5.462;2023-05-14T07:59:47;101624.59;;;20.88
75431;BMP280;64127;51.488;5.462;2023-05-14T08:02:19;101619.47;;;21.07
75431;BMP280;64127;51.488;5.462;2023-05-14T08:04:51;101625.78;;;21.11
75431;BMP280;64127;51.488;5.462;2023-05-14T08:07:23;101625.66;;;21.02
75431;BMP280;64127;51.488;5.462;2023-05-14T08:09:56;101618.56;;;21.07
75431;BMP280;64127;51.488;5.462;2023-05-14T08:12:28;101627.66;;;21.21
75431;BMP280;64127;51.488;5.462;2023-05-14T08:15:01;101615.38;;;21.38
75431;BMP280;64127;51.488;5.462;2023-05-14T08:17:33;101612.03;;;21.60
75431;BMP280;64127;51.488;5.462;2023-05-14T08:20:06;101617.59;;;21.85
75431;BMP280;64127;51.488;5.462;2023-05-14T08:22:38;101609.69;;;21.97
75431;BMP280;64127;51.488;5.462;2023-05-14T08:25:10;101616.03;;;22.11
75431;BMP280;64127;51.488;5.462;2023-05-14T08:27:42;101618.75;;;22.18
75431;BMP280;64127;51.488;5.462;2023-05-14T08:30:14;101613.47;;;22.28
75431;BMP280;64127;51.488;5.462;2023-05-14T08:32:47;101603.72;;;22.43
75431;BMP280;64127;51.488;5.462;2023-05-14T08:35:19;101610.94;;;22.53
75431;BMP280;64127;51.488;5.462;2023-05-14T08:37:51;101613.63;;;22.58
75431;BMP280;64127;51.488;5.462;2023-05-14T08:40:23;101602.16;;;22.82
75431;BMP280;64127;51.488;5.462;2023-05-14T08:42:57;101604.00;;;23.05
75431;BMP280;64127;51.488;5.462;2023-05-14T08:45:30;101600.50;;;23.21
75431;BMP280;64127;51.488;5.462;2023-05-14T08:48:08;101595.16;;;23.32
75431;BMP280;64127;51.488;5.462;2023-05-14T08:50:42;101596.94;;;23.38
75431;BMP280;64127;51.488;5.462;2023-05-14T08:53:15;101585.31;;;23.33
75431;BMP280;64127;51.488;5.462;2023-05-14T08:55:49;101588.91;;;23.29
75431;BMP280;64127;51.488;5.462;2023-05-14T08:58:23;101587.13;;;23.28
75431;BMP280;64127;51.488;5.462;2023-05-14T09:00:57;101582.66;;;23.40
75431;BMP280;64127;51.488;5.462;2023-05-14T09:03:29;101568.41;;;23.58
75431;BMP280;64127;51.488;5.462;2023-05-14T09:06:03;101565.72;;;23.79
75431;BMP280;64127;51.488;5.462;2023-05-14T09:08:36;101571.03;;;23.94
75431;BMP280;64127;51.488;5.462;2023-05-14T09:11:09;101563.91;;;24.04
75431;BMP280;64127;51.488;5.462;2023-05-14T09:13:41;101573.72;;;24.17
75431;BMP280;64127;51.488;5.462;2023-05-14T09:16:14;101557.59;;;24.29
75431;BMP280;64127;51.488;5.462;2023-05-14T09:18:49;101561.16;;;24.37
75431;BMP280;64127;51.488;5.462;2023-05-14T09:21:22;101558.47;;;24.42
75431;BMP280;64127;51.488;5.462;2023-05-14T09:23:56;101558.44;;;24.46
75431;BMP280;64127;51.488;5.462;2023-05-14T09:26:33;101559.34;;;24.48
75431;BMP280;64127;51.488;5.462;2023-05-14T09:29:06;101555.84;;;24.28
75431;BMP280;64127;51.488;5.462;2023-05-14T09:31:38;101555.78;;;24.36
75431;BMP280;64127;51.488;5.462;2023-05-14T09:34:10;101560.22;;;24.52
75431;BMP280;64127;51.488;5.462;2023-05-14T09:36:42;101556.59;;;24.57
75431;BMP280;64127;51.488;5.462;2023-05-14T09:39:14;101552.13;;;24.56
75431;BMP280;64127;51.488;5.462;2023-05-14T09:41:48;101543.16;;;24.60
75431;BMP280;64127;51.488;5.462;2023-05-14T09:44:21;101543.19;;;24.57
75431;BMP280;64127;51.488;5.462;2023-05-14T09:46:54;101543.09;;;24.71
75431;BMP280;64127;51.488;5.462;2023-05-14T09:49:27;101543.94;;;24.88
75431;BMP280;64127;51.488;5.462;2023-05-14T09:52:00;101542.97;;;25.03
75431;BMP280;64127;51.488;5.462;2023-05-14T09:54:35;101535.69;;;25.14
75431;BMP280;64127;51.488;5.462;2023-05-14T09:57:07;101533.84;;;25.22
75431;BMP280;64127;51.488;5.462;2023-05-14T09:59:39;101536.53;;;25.22
75431;BMP280;64127;51.488;5.462;2023-05-14T10:04:56;101538.25;;;25.32
75431;BMP280;64127;51.488;5.462;2023-05-14T10:07:43;101538.16;;;25.43
75431;BMP280;64127;51.488;5.462;2023-05-14T10:10:23;101536.31;;;25.49
75431;BMP280;64127;51.488;5.462;2023-05-14T10:13:03;101530.13;;;25.44
75431;BMP280;64127;51.488;5.462;2023-05-14T10:15:48;101530.13;;;25.44
75431;BMP280;64127;51.488;5.462;2023-05-14T10:18:23;101529.16;;;25.53
75431;BMP280;64127;51.488;5.462;2023-05-14T10:21:04;101523.72;;;25.59
75431;BMP280;64127;51.488;5.462;2023-05-14T10:23:37;101516.41;;;25.73
75431;BMP280;64127;51.488;5.462;2023-05-14T10:26:09;101522.59;;;25.86
75431;BMP280;64127;51.488;5.462;2023-05-14T10:28:42;101510.91;;;25.88
75431;BMP280;64127;51.488;5.462;2023-05-14T10:31:14;101515.34;;;25.92
75431;BMP280;64127;51.488;5.462;2023-05-14T10:33:49;101513.47;;;25.99
75431;BMP280;64127;51.488;5.462;2023-05-14T10:36:21;101516.03;;;26.09
75431;BMP280;64127;51.488;5.462;2023-05-14T10:38:56;101516.00;;;26.12
75431;BMP280;64127;51.488;5.462;2023-05-14T10:41:29;101514.25;;;26.07
75431;BMP280;64127;51.488;5.462;2023-05-14T10:44:07;101513.50;;;25.93
75431;BMP280;64127;51.488;5.462;2023-05-14T10:46:41;101502.72;;;25.97
75431;BMP280;64127;51.488;5.462;2023-05-14T10:49:13;101498.16;;;26.04
75431;BMP280;64127;51.488;5.462;2023-05-14T10:51:47;101507.06;;;26.07
75431;BMP280;64127;51.488;5.462;2023-05-14T10:54:22;101504.44;;;26.06
75431;BMP280;64127;51.488;5.462;2023-05-14T10:56:58;101499.09;;;26.00
75431;BMP280;64127;51.488;5.462;2023-05-14T10:59:32;101493.53;;;26.15
75431;BMP280;64127;51.488;5.462;2023-05-14T11:02:18;101491.56;;;26.32
75431;BMP280;64127;51.488;5.462;2023-05-14T11:05:04;101489.59;;;26.46
75431;BMP280;64127;51.488;5.462;2023-05-14T11:07:43;101482.22;;;26.60
75431;BMP280;64127;51.488;5.462;2023-05-14T11:10:18;101485.56;;;26.78
75431;BMP280;64127;51.488;5.462;2023-05-14T11:12:51;101468.56;;;26.74
75431;BMP280;64127;51.488;5.462;2023-05-14T11:15:25;101481.91;;;26.79
75431;BMP280;64127;51.488;5.462;2023-05-14T11:17:57;101478.44;;;26.73
75431;BMP280;64127;51.488;5.462;2023-05-14T11:20:29;101472.16;;;26.73
75431;BMP280;64127;51.488;5.462;2023-05-14T11:23:03;101477.44;;;26.79
75431;BMP280;64127;51.488;5.462;2023-05-14T11:25:35;101465.75;;;26.79
75431;BMP280;64127;51.488;5.462;2023-05-14T11:28:07;101463.94;;;26.84
75431;BMP280;64127;51.488;5.462;2023-05-14T11:30:40;101458.63;;;26.76
75431;BMP280;64127;51.488;5.462;2023-05-14T11:33:11;101464.84;;;26.81
75431;BMP280;64127;51.488;5.462;2023-05-14T11:35:44;101465.75;;;26.79
75431;BMP280;64127;51.488;5.462;2023-05-14T11:38:19;101453.25;;;26.78
75431;BMP280;64127;51.488;5.462;2023-05-14T11:40:56;101431.78;;;26.71
75431;BMP280;64127;51.488;5.462;2023-05-14T11:43:29;101458.34;;;26.96
75431;BMP280;64127;51.488;5.462;2023-05-14T11:46:01;101449.41;;;26.94
75431;BMP280;64127;51.488;5.462;2023-05-14T11:48:34;101446.72;;;26.95
75431;BMP280;64127;51.488;5.462;2023-05-14T11:51:06;101440.50;;;26.89
75431;BMP280;64127;51.488;5.462;2023-05-14T11:53:37;101439.59;;;26.91
75431;BMP280;64127;51.488;5.462;2023-05-14T11:56:10;101446.72;;;26.94
75431;BMP280;64127;51.488;5.462;2023-05-14T11:58:54;101438.66;;;26.94
75431;BMP280;64127;51.488;5.462;2023-05-14T12:01:27;101445.03;;;26.88
75431;BMP280;64127;51.488;5.462;2023-05-14T12:04:02;101427.97;;;26.88
75431;BMP280;64127;51.488;5.462;2023-05-14T12:06:35;101437.78;;;26.92
75431;BMP280;64127;51.488;5.462;2023-05-14T12:09:11;101436.78;;;26.96
75431;BMP280;64127;51.488;5.462;2023-05-14T12:11:45;101431.22;;;27.06
75431;BMP280;64127;51.488;5.462;2023-05-14T12:14:22;101435.53;;;27.16
75431;BMP280;64127;51.488;5.462;2023-05-14T12:16:54;101423.84;;;27.19
75431;BMP280;64127;51.488;5.462;2023-05-14T12:19:29;101418.53;;;27.14
75431;BMP280;64127;51.488;5.462;2023-05-14T12:22:01;101415.19;;;26.99
75431;BMP280;64127;51.488;5.462;2023-05-14T12:24:33;101417.16;;;26.91
75431;BMP280;64127;51.488;5.462;2023-05-14T12:27:06;101412.38;;;27.08
75431;BMP280;64127;51.488;5.462;2023-05-14T12:29:42;101406.16;;;27.03
75431;BMP280;64127;51.488;5.462;2023-05-14T12:32:14;101407.88;;;27.08
75431;BMP280;64127;51.488;5.462;2023-05-14T12:34:46;101396.97;;;27.14
75431;BMP280;64127;51.488;5.462;2023-05-14T12:37:18;101401.59;;;27.08
75431;BMP280;64127;51.488;5.462;2023-05-14T12:39:50;101400.69;;;27.09
75431;BMP280;64127;51.488;5.462;2023-05-14T12:42:22;101388.84;;;27.16
75431;BMP280;64127;51.488;5.462;2023-05-14T12:44:54;101388.91;;;27.14
75431;BMP280;64127;51.488;5.462;2023-05-14T12:47:27;101386.38;;;27.04
75431;BMP280;64127;51.488;5.462;2023-05-14T12:49:59;101377.41;;;27.05
75431;BMP280;64127;51.488;5.462;2023-05-14T12:52:30;101378.88;;;27.23
75431;BMP280;64127;51.488;5.462;2023-05-14T12:55:10;101380.50;;;27.31
75431;BMP280;64127;51.488;5.462;2023-05-14T12:57:42;101376.69;;;27.41
75431;BMP280;64127;51.488;5.462;2023-05-14T13:00:14;101367.00;;;27.33
75431;BMP280;64127;51.488;5.462;2023-05-14T13:02:46;101362.47;;;27.33
75431;BMP280;64127;51.488;5.462;2023-05-14T13:05:19;101370.41;;;27.42
75431;BMP280;64127;51.488;5.462;2023-05-14T13:07:52;101367.63;;;27.48
75431;BMP280;64127;51.488;5.462;2023-05-14T13:10:24;101360.53;;;27.41
75431;BMP280;64127;51.488;5.462;2023-05-14T13:12:56;101368.03;;;27.26
75431;BMP280;64127;51.488;5.462;2023-05-14T13:15:28;101344.09;;;27.09
75431;BMP280;64127;51.488;5.462;2023-05-14T13:18:03;101350.84;;;27.31
75431;BMP280;64127;51.488;5.462;2023-05-14T13:20:35;101346.28;;;27.36
75431;BMP280;64127;51.488;5.462;2023-05-14T13:23:07;101345.06;;;27.52
75431;BMP280;64127;51.488;5.462;2023-05-14T13:25:39;101345.69;;;27.66
75431;BMP280;64127;51.488;5.462;2023-05-14T13:28:11;101349.00;;;27.78
75431;BMP280;64127;51.488;5.462;2023-05-14T13:31:07;101342.78;;;27.74
75431;BMP280;64127;51.488;5.462;2023-05-14T13:33:41;101344.28;;;27.89
75431;BMP280;64127;51.488;5.462;2023-05-14T13:36:14;101334.06;;;28.03
75431;BMP280;64127;51.488;5.462;2023-05-14T13:38:47;101330.44;;;28.07
75431;BMP280;64127;51.488;5.462;2023-05-14T13:41:19;101345.16;;;27.91
75431;BMP280;64127;51.488;5.462;2023-05-14T13:43:52;101340.00;;;27.79
75431;BMP280;64127;51.488;5.462;2023-05-14T13:46:24;101333.78;;;27.75
75431;BMP280;64127;51.488;5.462;2023-05-14T13:48:56;101337.09;;;27.89
75431;BMP280;64127;51.488;5.462;2023-05-14T13:51:28;101333.25;;;28.01
75431;BMP280;64127;51.488;5.462;2023-05-14T13:54:00;101332.22;;;28.06
75431;BMP280;64127;51.488;5.462;2023-05-14T13:56:32;101326.13;;;27.97
75431;BMP280;64127;51.488;5.462;2023-05-14T13:59:04;101326.16;;;27.95
75431;BMP280;64127;51.488;5.462;2023-05-14T14:01:36;101323.44;;;27.95
75431;BMP280;64127;51.488;5.462;2023-05-14T14:04:09;101317.53;;;27.80
75431;BMP280;64127;51.488;5.462;2023-05-14T14:06:41;101325.63;;;27.80
75431;BMP280;64127;51.488;5.462;2023-05-14T14:09:13;101320.38;;;27.74
75431;BMP280;64127;51.488;5.462;2023-05-14T14:11:45;101311.69;;;27.59
75431;BMP280;64127;51.488;5.462;2023-05-14T14:14:17;101320.94;;;27.46
75431;BMP280;64127;51.488;5.462;2023-05-14T14:16:49;101315.63;;;27.40
75431;BMP280;64127;51.488;5.462;2023-05-14T14:19:21;101305.03;;;27.31
75431;BMP280;64127;51.488;5.462;2023-05-14T14:21:53;101307.72;;;27.33
75431;BMP280;64127;51.488;5.462;2023-05-14T14:24:25;101310.44;;;27.31
75431;BMP280;64127;51.488;5.462;2023-05-14T14:26:57;101309.53;;;27.31
75431;BMP280;64127;51.488;5.462;2023-05-14T14:29:30;101306.06;;;27.26
75431;BMP280;64127;51.488;5.462;2023-05-14T14:32:02;101316.00;;;27.22
75431;BMP280;64127;51.488;5.462;2023-05-14T14:34:35;101306.41;;;27.09
75431;BMP280;64127;51.488;5.462;2023-05-14T14:37:07;101303.91;;;26.97